Wetterdaten: Dienstag, 22.05.2012
Datum Zeit Temperatur Luftfeuchte Regen Wind Richtung Richtung Taupunkt Windchill Windben
22.05.2012 00:00 10,9 C 84 % 0,0 l/m 1,1 km/h (1 Bft) O-SO 112 8,3 C 10,9 C 7,9 km/h (2 Bft)
22.05.2012 00:05 10,8 C 84 % 0,0 l/m 1,6 km/h (1 Bft) O-SO 112 8,2 C 10,9 C 2,7 km/h (1 Bft)
22.05.2012 00:10 10,9 C 85 % 0,0 l/m 3,2 km/h (1 Bft) O-SO 112 8,5 C 10,9 C 15,8 km/h (3 Bft)
22.05.2012 00:15 11,1 C 84 % 0,0 l/m 4,3 km/h (1 Bft) W-SW 247 8,5 C 11,1 C 8,9 km/h (2 Bft)
22.05.2012 00:20 11,1 C 84 % 0,0 l/m 5,1 km/h (1 Bft) SO 135 8,5 C 10,9 C 7,1 km/h (2 Bft)
22.05.2012 00:25 11,0 C 84 % 0,0 l/m 5,3 km/h (1 Bft) O-SO 112 8,4 C 11,1 C 7,1 km/h (2 Bft)
22.05.2012 00:30 11,0 C 84 % 0,0 l/m 6,1 km/h (2 Bft) SO 135 8,4 C 10,8 C 15,1 km/h (3 Bft)
22.05.2012 00:35 11,0 C 84 % 0,0 l/m 5,6 km/h (1 Bft) N-NO 22 8,4 C 11,0 C 2,7 km/h (1 Bft)
22.05.2012 00:40 11,1 C 84 % 0,0 l/m 5,5 km/h (1 Bft) O-SO 112 8,5 C 11,0 C 4,7 km/h (1 Bft)
22.05.2012 00:45 10,6 C 83 % 0,0 l/m 4,3 km/h (1 Bft) S 180 7,8 C 11,2 C 7,2 km/h (2 Bft)
22.05.2012 00:50 10,6 C 84 % 0,0 l/m 2,9 km/h (1 Bft) SO 135 8,0 C 10,9 C 5,8 km/h (2 Bft)
22.05.2012 00:55 10,5 C 84 % 0,0 l/m 3,5 km/h (1 Bft) S-SO 157 7,9 C 10,9 C 10,1 km/h (2 Bft)
22.05.2012 01:00 10,7 C 85 % 0,0 l/m 5,8 km/h (2 Bft) O 90 8,3 C 10,7 C 8,5 km/h (2 Bft)
22.05.2012 01:05 10,9 C 85 % 0,0 l/m 6,6 km/h (2 Bft) SO 135 8,5 C 10,5 C 19,3 km/h (3 Bft)
22.05.2012 01:10 10,7 C 85 % 0,0 l/m 6,4 km/h (2 Bft) SO 135 8,3 C 10,7 C 5,3 km/h (1 Bft)
22.05.2012 01:15 10,6 C 85 % 0,0 l/m 4,2 km/h (1 Bft) O 90 8,2 C 11,0 C 2,7 km/h (1 Bft)
22.05.2012 01:20 10,5 C 85 % 0,0 l/m 1,3 km/h (1 Bft) S-SO 157 8,1 C 10,7 C 5,3 km/h (1 Bft)
22.05.2012 01:25 10,4 C 85 % 0,0 l/m 1,0 km/h (0 Bft) O-NO 67 8,0 C 10,5 C 0,0 km/h (0 Bft)
22.05.2012 01:30 10,4 C 86 % 0,0 l/m 1,4 km/h (1 Bft) N-NO 22 8,2 C 10,4 C 2,4 km/h (1 Bft)
22.05.2012 01:35 10,4 C 86 % 0,0 l/m 2,3 km/h (1 Bft) O-SO 112 8,2 C 10,4 C 7,2 km/h (2 Bft)
22.05.2012 01:40 10,2 C 86 % 0,0 l/m 2,3 km/h (1 Bft) N-NO 22 8,0 C 10,4 C 1,6 km/h (1 Bft)
22.05.2012 01:45 10,1 C 86 % 0,0 l/m 1,3 km/h (1 Bft) N-NO 22 7,9 C 10,2 C 2,1 km/h (1 Bft)
22.05.2012 01:50 10,0 C 86 % 0,0 l/m 0,6 km/h (0 Bft) N-NO 22 7,8 C 10,1 C 0,0 km/h (0 Bft)
22.05.2012 01:55 10,1 C 87 % 0,0 l/m 1,1 km/h (1 Bft) O 90 8,0 C 10,0 C 5,0 km/h (1 Bft)
22.05.2012 02:00 10,0 C 87 % 0,0 l/m 2,1 km/h (1 Bft) NW 315 7,9 C 10,1 C 0,0 km/h (0 Bft)
22.05.2012 02:05 9,8 C 87 % 0,0 l/m 1,6 km/h (1 Bft) SO 135 7,7 C 10,0 C 0,0 km/h (0 Bft)
22.05.2012 02:10 9,8 C 88 % 0,0 l/m 0,6 km/h (0 Bft) O-NO 67 7,9 C 9,9 C 0,0 km/h (0 Bft)
22.05.2012 02:15 9,6 C 87 % 0,0 l/m 0,6 km/h (0 Bft) N 360 7,5 C 9,8 C 2,9 km/h (1 Bft)
22.05.2012 02:20 9,7 C 88 % 0,0 l/m 0,5 km/h (0 Bft) N-NO 22 7,8 C 9,8 C 0,0 km/h (0 Bft)
22.05.2012 02:25 9,9 C 88 % 0,0 l/m 0,5 km/h (0 Bft) N 360 8,0 C 9,8 C 0,0 km/h (0 Bft)
22.05.2012 02:30 10,2 C 87 % 0,0 l/m 0,8 km/h (0 Bft) NO 45 8,1 C 9,9 C 0,0 km/h (0 Bft)
22.05.2012 02:35 10,3 C 87 % 0,0 l/m 1,0 km/h (0 Bft) NO 45 8,2 C 10,0 C 0,0 km/h (0 Bft)
22.05.2012 02:40 10,3 C 86 % 0,0 l/m 0,6 km/h (0 Bft) N-NW 337 8,1 C 10,0 C 2,9 km/h (1 Bft)
22.05.2012 02:45 10,2 C 86 % 0,0 l/m 0,6 km/h (0 Bft) N 360 8,0 C 10,0 C 3,1 km/h (1 Bft)
22.05.2012 02:50 10,1 C 86 % 0,0 l/m 1,1 km/h (1 Bft) N-NW 337 7,9 C 9,9 C 1,9 km/h (1 Bft)
22.05.2012 02:55 10,1 C 86 % 0,0 l/m 1,3 km/h (1 Bft) NO 45 7,9 C 9,8 C 0,0 km/h (0 Bft)
22.05.2012 03:00 10,0 C 86 % 0,0 l/m 1,8 km/h (1 Bft) N 360 7,8 C 9,8 C 2,4 km/h (1 Bft)
22.05.2012 03:05 9,6 C 86 % 0,0 l/m 1,3 km/h (1 Bft) N-NO 22 7,4 C 9,8 C 1,9 km/h (1 Bft)
22.05.2012 03:10 9,3 C 85 % 0,0 l/m 0,5 km/h (0 Bft) O-SO 112 6,9 C 9,4 C 1,9 km/h (1 Bft)
22.05.2012 03:15 9,4 C 85 % 0,0 l/m 0,6 km/h (0 Bft) NO 45 7,0 C 9,4 C 3,7 km/h (1 Bft)
22.05.2012 03:20 9,5 C 86 % 0,0 l/m 1,3 km/h (1 Bft) N 360 7,3 C 9,4 C 0,0 km/h (0 Bft)
22.05.2012 03:25 9,3 C 86 % 0,0 l/m 1,4 km/h (1 Bft) W-NW 292 7,1 C 9,5 C 2,7 km/h (1 Bft)
22.05.2012 03:30 9,1 C 86 % 0,0 l/m 1,0 km/h (0 Bft) N 360 6,9 C 9,4 C 0,0 km/h (0 Bft)
22.05.2012 03:35 9,0 C 86 % 0,0 l/m 0,6 km/h (0 Bft) N 360 6,8 C 9,1 C 3,1 km/h (1 Bft)
22.05.2012 03:40 9,1 C 86 % 0,0 l/m 0,6 km/h (0 Bft) N 360 6,9 C 8,9 C 3,2 km/h (1 Bft)
22.05.2012 03:45 9,2 C 86 % 0,0 l/m 1,0 km/h (0 Bft) N-NO 22 7,0 C 8,8 C 2,9 km/h (1 Bft)
22.05.2012 03:50 9,0 C 86 % 0,0 l/m 0,8 km/h (0 Bft) N 360 6,8 C 8,8 C 0,0 km/h (0 Bft)
22.05.2012 03:55 9,0 C 87 % 0,0 l/m 0,8 km/h (0 Bft) S 180 7,0 C 8,6 C 0,0 km/h (0 Bft)
22.05.2012 04:00 8,8 C 88 % 0,0 l/m 0,8 km/h (0 Bft) N-NW 337 6,9 C 8,5 C 2,4 km/h (1 Bft)
22.05.2012 04:05 9,0 C 88 % 0,0 l/m 0,6 km/h (0 Bft) N-NO 22 7,1 C 8,5 C 0,0 km/h (0 Bft)
22.05.2012 04:10 8,8 C 88 % 0,0 l/m 1,1 km/h (1 Bft) N-NO 22 6,9 C 8,5 C 2,1 km/h (1 Bft)
22.05.2012 04:15 8,9 C 88 % 0,0 l/m 1,0 km/h (0 Bft) N 360 7,0 C 8,4 C 2,6 km/h (1 Bft)
22.05.2012 04:20 9,0 C 87 % 0,0 l/m 1,1 km/h (1 Bft) NO 45 7,0 C 8,5 C 0,0 km/h (0 Bft)
22.05.2012 04:25 8,5 C 87 % 0,0 l/m 1,0 km/h (0 Bft) SO 135 6,5 C 8,4 C 0,0 km/h (0 Bft)
22.05.2012 04:30 8,1 C 86 % 0,0 l/m 0,5 km/h (0 Bft) NO 45 5,9 C 8,0 C 0,0 km/h (0 Bft)
22.05.2012 04:35 7,9 C 86 % 0,0 l/m 0,2 km/h (0 Bft) O-NO 67 5,7 C 7,9 C 0,0 km/h (0 Bft)
22.05.2012 04:40 8,0 C 86 % 0,0 l/m 0,2 km/h (0 Bft) N-NO 22 5,8 C 7,7 C 0,0 km/h (0 Bft)
22.05.2012 04:45 7,7 C 86 % 0,0 l/m 0,5 km/h (0 Bft) S-SO 157 5,5 C 7,6 C 2,1 km/h (1 Bft)
22.05.2012 04:50 7,2 C 88 % 0,0 l/m 0,5 km/h (0 Bft) N 360 5,3 C 7,2 C 0,0 km/h (0 Bft)
22.05.2012 04:55 7,8 C 88 % 0,0 l/m 0,2 km/h (0 Bft) O-SO 112 5,9 C 7,0 C 0,0 km/h (0 Bft)
22.05.2012 05:00 7,2 C 88 % 0,0 l/m 0,0 km/h (0 Bft) N-NO 22 5,3 C 6,8 C 0,0 km/h (0 Bft)
22.05.2012 05:05 7,6 C 88 % 0,0 l/m 0,2 km/h (0 Bft) NO 45 5,7 C 7,0 C 0,0 km/h (0 Bft)
22.05.2012 05:10 7,6 C 88 % 0,0 l/m 0,3 km/h (0 Bft) N-NO 22 5,7 C 7,0 C 1,9 km/h (1 Bft)
22.05.2012 05:15 7,6 C 88 % 0,0 l/m 0,2 km/h (0 Bft) N-NO 22 5,7 C 7,0 C 0,0 km/h (0 Bft)
22.05.2012 05:20 7,2 C 87 % 0,0 l/m 0,2 km/h (0 Bft) W-SW 247 5,2 C 6,8 C 0,0 km/h (0 Bft)
22.05.2012 05:25 6,9 C 87 % 0,0 l/m 0,0 km/h (0 Bft) O-NO 67 4,9 C 6,6 C 0,0 km/h (0 Bft)
22.05.2012 05:30 7,5 C 88 % 0,0 l/m 0,0 km/h (0 Bft) O-SO 112 5,6 C 6,6 C 0,0 km/h (0 Bft)
22.05.2012 05:35 7,4 C 88 % 0,0 l/m 0,0 km/h (0 Bft) S-SO 157 5,5 C 6,6 C 0,0 km/h (0 Bft)
22.05.2012 05:40 7,0 C 88 % 0,0 l/m 0,2 km/h (0 Bft) NO 45 5,2 C 6,4 C 0,0 km/h (0 Bft)
22.05.2012 05:45 7,0 C 88 % 0,0 l/m 0,2 km/h (0 Bft) S 180 5,2 C 6,4 C 0,0 km/h (0 Bft)
22.05.2012 05:50 6,6 C 88 % 0,0 l/m 0,0 km/h (0 Bft) N 360 4,8 C 6,3 C 0,0 km/h (0 Bft)
22.05.2012 05:55 6,8 C 88 % 0,0 l/m 0,0 km/h (0 Bft) S 180 5,0 C 6,2 C 0,0 km/h (0 Bft)
22.05.2012 06:00 7,0 C 88 % 0,0 l/m 0,3 km/h (0 Bft) O 90 5,2 C 6,2 C 0,0 km/h (0 Bft)
22.05.2012 06:05 7,5 C 88 % 0,0 l/m 0,3 km/h (0 Bft) N 360 5,6 C 6,6 C 0,0 km/h (0 Bft)
22.05.2012 06:10 7,9 C 88 % 0,0 l/m 0,2 km/h (0 Bft) N-NO 22 6,0 C 7,0 C 0,0 km/h (0 Bft)
22.05.2012 06:15 8,2 C 88 % 0,0 l/m 0,2 km/h (0 Bft) O 90 6,3 C 7,3 C 0,0 km/h (0 Bft)
22.05.2012 06:20 8,2 C 87 % 0,0 l/m 0,2 km/h (0 Bft) W-SW 247 6,2 C 7,6 C 0,0 km/h (0 Bft)
22.05.2012 06:25 8,1 C 87 % 0,0 l/m 0,0 km/h (0 Bft) W-SW 247 6,1 C 7,8 C 0,0 km/h (0 Bft)
22.05.2012 06:30 8,5 C 86 % 0,0 l/m 0,0 km/h (0 Bft) O-SO 112 6,3 C 8,1 C 0,0 km/h (0 Bft)
22.05.2012 06:35 8,7 C 86 % 0,0 l/m 0,0 km/h (0 Bft) N-NO 22 6,5 C 8,4 C 0,0 km/h (0 Bft)
22.05.2012 06:40 9,2 C 85 % 0,0 l/m 0,0 km/h (0 Bft) NO 45 6,8 C 8,8 C 0,0 km/h (0 Bft)
22.05.2012 06:45 9,9 C 85 % 0,0 l/m 0,0 km/h (0 Bft) N-NO 22 7,5 C 9,5 C 0,0 km/h (0 Bft)
22.05.2012 06:50 10,1 C 83 % 0,0 l/m 0,0 km/h (0 Bft) NO 45 7,3 C 10,3 C 0,0 km/h (0 Bft)
22.05.2012 06:55 10,2 C 82 % 0,0 l/m 0,0 km/h (0 Bft) N 360 7,3 C 10,8 C 0,0 km/h (0 Bft)
22.05.2012 07:00 10,5 C 81 % 0,0 l/m 0,2 km/h (0 Bft) N-NO 22 7,4 C 10,9 C 0,0 km/h (0 Bft)
22.05.2012 07:05 12,0 C 78 % 0,0 l/m 0,8 km/h (0 Bft) O-NO 67 8,3 C 11,5 C 0,0 km/h (0 Bft)
22.05.2012 07:10 14,3 C 74 % 0,0 l/m 0,8 km/h (0 Bft) O 90 9,7 C 13,9 C 0,0 km/h (0 Bft)
22.05.2012 07:15 15,1 C 72 % 0,0 l/m 0,5 km/h (0 Bft) S-SO 157 10,7 C 15,4 C 0,0 km/h (0 Bft)
22.05.2012 07:20 15,9 C 66 % 0,0 l/m 1,3 km/h (1 Bft) O-SO 112 9,6 C 16,7 C 2,7 km/h (1 Bft)
22.05.2012 07:25 14,2 C 68 % 0,0 l/m 2,1 km/h (1 Bft) SO 135 8,4 C 16,5 C 5,8 km/h (2 Bft)
22.05.2012 07:30 12,4 C 73 % 0,0 l/m 1,9 km/h (1 Bft) W-SW 247 7,7 C 14,6 C 1,8 km/h (1 Bft)
22.05.2012 07:35 12,3 C 73 % 0,0 l/m 1,1 km/h (1 Bft) NO 45 7,6 C 13,6 C 0,0 km/h (0 Bft)
22.05.2012 07:40 12,7 C 74 % 0,0 l/m 0,0 km/h (0 Bft) S-SO 157 8,2 C 13,3 C 0,0 km/h (0 Bft)
22.05.2012 07:45 13,2 C 72 % 0,0 l/m 0,3 km/h (0 Bft) S-SO 157 8,3 C 13,3 C 0,0 km/h (0 Bft)
22.05.2012 07:50 13,4 C 73 % 0,0 l/m 0,6 km/h (0 Bft) SO 135 8,7 C 13,4 C 0,0 km/h (0 Bft)
22.05.2012 07:55 14,3 C 70 % 0,0 l/m 0,5 km/h (0 Bft) S-SW 202 8,9 C 14,4 C 0,0 km/h (0 Bft)
22.05.2012 08:00 14,3 C 71 % 0,0 l/m 0,2 km/h (0 Bft) SO 135 9,1 C 14,9 C 0,0 km/h (0 Bft)
22.05.2012 08:05 14,9 C 70 % 0,0 l/m 0,3 km/h (0 Bft) S 180 9,5 C 15,4 C 0,0 km/h (0 Bft)
22.05.2012 08:10 15,5 C 67 % 0,0 l/m 1,1 km/h (1 Bft) O-SO 112 9,4 C 16,5 C 3,4 km/h (1 Bft)
22.05.2012 08:15 14,8 C 68 % 0,0 l/m 1,4 km/h (1 Bft) S 180 9,0 C 16,1 C 3,2 km/h (1 Bft)
22.05.2012 08:20 14,4 C 68 % 0,0 l/m 1,6 km/h (1 Bft) O-SO 112 8,6 C 15,4 C 2,1 km/h (1 Bft)
22.05.2012 08:25 16,2 C 65 % 0,0 l/m 1,8 km/h (1 Bft) O-SO 112 9,6 C 15,7 C 2,3 km/h (1 Bft)
22.05.2012 08:30 17,4 C 60 % 0,0 l/m 1,9 km/h (1 Bft) O 90 10,9 C 16,3 C 2,3 km/h (1 Bft)
22.05.2012 08:35 18,0 C 53 % 0,0 l/m 2,9 km/h (1 Bft) SO 135 10,0 C 18,5 C 2,4 km/h (1 Bft)
22.05.2012 08:40 18,0 C 52 % 0,0 l/m 2,1 km/h (1 Bft) SW 225 9,8 C 20,5 C 0,0 km/h (0 Bft)
22.05.2012 08:45 18,1 C 53 % 0,0 l/m 1,4 km/h (1 Bft) S 180 10,8 C 21,6 C 2,9 km/h (1 Bft)
22.05.2012 08:50 18,2 C 51 % 0,0 l/m 1,8 km/h (1 Bft) O-SO 112 10,2 C 21,9 C 2,7 km/h (1 Bft)
22.05.2012 08:55 18,3 C 50 % 0,0 l/m 1,8 km/h (1 Bft) S-SO 157 9,2 C 22,4 C 3,2 km/h (1 Bft)
22.05.2012 09:00 18,7 C 49 % 0,0 l/m 1,9 km/h (1 Bft) S 180 10,1 C 22,6 C 4,5 km/h (1 Bft)
22.05.2012 09:05 18,9 C 49 % 0,0 l/m 3,2 km/h (1 Bft) SO 135 9,6 C 22,2 C 6,9 km/h (2 Bft)
22.05.2012 09:10 19,1 C 49 % 0,0 l/m 4,5 km/h (1 Bft) S-SO 157 10,1 C 21,6 C 3,5 km/h (1 Bft)
22.05.2012 09:15 19,3 C 48 % 0,0 l/m 4,3 km/h (1 Bft) W-SW 247 9,7 C 21,6 C 2,6 km/h (1 Bft)
22.05.2012 09:20 19,6 C 47 % 0,0 l/m 3,1 km/h (1 Bft) SO 135 9,8 C 22,2 C 3,7 km/h (1 Bft)
22.05.2012 09:25 19,8 C 48 % 0,0 l/m 2,1 km/h (1 Bft) S 180 10,3 C 23,0 C 5,3 km/h (1 Bft)
22.05.2012 09:30 19,9 C 45 % 0,0 l/m 2,4 km/h (1 Bft) SW 225 8,7 C 23,0 C 0,0 km/h (0 Bft)
22.05.2012 09:35 20,2 C 45 % 0,0 l/m 3,1 km/h (1 Bft) S 180 9,8 C 23,3 C 4,3 km/h (1 Bft)
22.05.2012 09:40 20,4 C 46 % 0,0 l/m 2,6 km/h (1 Bft) W-SW 247 9,0 C 23,5 C 7,1 km/h (2 Bft)
22.05.2012 09:45 20,5 C 46 % 0,0 l/m 2,9 km/h (1 Bft) S-SW 202 9,3 C 23,5 C 5,5 km/h (1 Bft)
22.05.2012 09:50 20,3 C 46 % 0,0 l/m 2,9 km/h (1 Bft) S-SW 202 9,7 C 23,8 C 3,7 km/h (1 Bft)
22.05.2012 09:55 18,6 C 50 % 0,0 l/m 3,1 km/h (1 Bft) W-SW 247 8,0 C 22,2 C 4,3 km/h (1 Bft)
22.05.2012 10:00 19,7 C 52 % 0,0 l/m 3,4 km/h (1 Bft) SO 135 9,6 C 19,4 C 2,6 km/h (1 Bft)
22.05.2012 10:06 18,9 C 50 % 0,0 l/m 2,4 km/h (1 Bft) SW 225 8,2 C 21,3 C 4,3 km/h (1 Bft)
22.05.2012 10:10 18,9 C 50 % 0,0 l/m 2,4 km/h (1 Bft) SW 225 8,2 C 21,3 C 4,3 km/h (1 Bft)
22.05.2012 10:15 20,1 C 49 % 0,0 l/m 2,7 km/h (1 Bft) W 270 9,0 C 21,1 C 3,7 km/h (1 Bft)
22.05.2012 10:20 18,7 C 51 % 0,0 l/m 3,1 km/h (1 Bft) N-NW 337 8,4 C 21,3 C 6,3 km/h (2 Bft)
22.05.2012 10:25 17,8 C 53 % 0,0 l/m 3,1 km/h (1 Bft) N-NW 337 8,1 C 19,6 C 3,2 km/h (1 Bft)
22.05.2012 10:30 20,6 C 46 % 0,0 l/m 3,2 km/h (1 Bft) NW 315 8,9 C 20,7 C 6,4 km/h (2 Bft)
22.05.2012 10:35 20,7 C 44 % 0,0 l/m 3,2 km/h (1 Bft) W-NW 292 8,2 C 21,4 C 3,5 km/h (1 Bft)
22.05.2012 10:40 20,7 C 45 % 0,0 l/m 3,9 km/h (1 Bft) S 180 8,3 C 21,8 C 2,1 km/h (1 Bft)
22.05.2012 10:45 21,1 C 46 % 0,0 l/m 4,0 km/h (1 Bft) N 360 9,0 C 21,9 C 4,8 km/h (1 Bft)
22.05.2012 10:50 20,6 C 45 % 0,0 l/m 3,7 km/h (1 Bft) W 270 8,2 C 21,9 C 4,5 km/h (1 Bft)
22.05.2012 10:55 20,4 C 45 % 0,0 l/m 3,7 km/h (1 Bft) N-NW 337 8,1 C 21,7 C 3,1 km/h (1 Bft)
22.05.2012 11:00 20,4 C 46 % 0,0 l/m 3,5 km/h (1 Bft) S-SW 202 8,4 C 21,5 C 0,0 km/h (0 Bft)
22.05.2012 11:05 21,3 C 46 % 0,0 l/m 2,7 km/h (1 Bft) W 270 9,2 C 22,4 C 6,4 km/h (2 Bft)
22.05.2012 11:10 20,6 C 44 % 0,0 l/m 2,3 km/h (1 Bft) W 270 7,9 C 22,8 C 3,1 km/h (1 Bft)
22.05.2012 11:15 21,2 C 45 % 0,0 l/m 3,4 km/h (1 Bft) S 180 8,8 C 22,8 C 2,9 km/h (1 Bft)
22.05.2012 11:20 22,0 C 41 % 0,0 l/m 2,9 km/h (1 Bft) W-SW 247 8,1 C 23,3 C 3,9 km/h (1 Bft)
22.05.2012 11:25 21,4 C 42 % 0,0 l/m 3,4 km/h (1 Bft) W 270 8,0 C 23,4 C 9,3 km/h (2 Bft)
22.05.2012 11:30 21,6 C 39 % 0,0 l/m 4,2 km/h (1 Bft) W 270 7,0 C 23,3 C 4,5 km/h (1 Bft)
22.05.2012 11:35 22,2 C 40 % 0,0 l/m 4,8 km/h (1 Bft) S-SO 157 8,0 C 23,3 C 8,5 km/h (2 Bft)
22.05.2012 11:40 20,2 C 46 % 0,0 l/m 4,2 km/h (1 Bft) SO 135 8,2 C 22,3 C 3,9 km/h (1 Bft)
22.05.2012 11:45 19,3 C 49 % 0,0 l/m 4,5 km/h (1 Bft) O-SO 112 8,3 C 21,4 C 2,7 km/h (1 Bft)
22.05.2012 11:50 19,4 C 49 % 0,0 l/m 4,8 km/h (1 Bft) N-NW 337 8,4 C 20,5 C 2,7 km/h (1 Bft)
22.05.2012 11:55 18,7 C 50 % 0,0 l/m 5,1 km/h (1 Bft) W-SW 247 8,1 C 20,0 C 8,4 km/h (2 Bft)
22.05.2012 12:00 18,0 C 53 % 0,0 l/m 5,8 km/h (2 Bft) S-SW 202 8,3 C 19,1 C 9,8 km/h (2 Bft)
22.05.2012 12:05 17,7 C 55 % 0,0 l/m 6,3 km/h (2 Bft) S-SW 202 8,5 C 18,7 C 10,3 km/h (2 Bft)
22.05.2012 12:10 17,4 C 58 % 0,0 l/m 6,0 km/h (2 Bft) S-SW 202 9,1 C 18,1 C 7,4 km/h (2 Bft)
22.05.2012 12:15 17,5 C 58 % 0,0 l/m 5,8 km/h (2 Bft) W-NW 292 9,1 C 17,9 C 8,7 km/h (2 Bft)
22.05.2012 12:20 17,4 C 59 % 0,0 l/m 5,8 km/h (2 Bft) W-SW 247 9,3 C 17,7 C 9,8 km/h (2 Bft)
22.05.2012 12:25 17,2 C 58 % 0,0 l/m 6,3 km/h (2 Bft) W-SW 247 8,9 C 17,6 C 6,9 km/h (2 Bft)
22.05.2012 12:30 17,5 C 59 % 0,0 l/m 5,5 km/h (1 Bft) W-SW 247 9,4 C 17,7 C 8,0 km/h (2 Bft)
22.05.2012 12:35 17,4 C 59 % 0,0 l/m 4,5 km/h (1 Bft) S 180 9,3 C 17,8 C 4,3 km/h (1 Bft)
22.05.2012 12:40 17,6 C 59 % 0,0 l/m 4,8 km/h (1 Bft) S 180 9,5 C 18,0 C 7,6 km/h (2 Bft)
22.05.2012 12:45 18,0 C 58 % 0,0 l/m 4,5 km/h (1 Bft) W-SW 247 9,6 C 18,1 C 3,2 km/h (1 Bft)
22.05.2012 12:50 18,7 C 58 % 0,0 l/m 3,7 km/h (1 Bft) W-SW 247 10,3 C 18,9 C 2,6 km/h (1 Bft)
22.05.2012 12:55 18,8 C 57 % 0,0 l/m 4,0 km/h (1 Bft) SW 225 10,1 C 19,4 C 8,2 km/h (2 Bft)
22.05.2012 13:00 19,1 C 57 % 0,0 l/m 4,0 km/h (1 Bft) W 270 10,4 C 19,7 C 4,2 km/h (1 Bft)
22.05.2012 13:05 19,0 C 58 % 0,0 l/m 4,2 km/h (1 Bft) W-NW 292 10,5 C 19,9 C 6,6 km/h (2 Bft)
22.05.2012 13:10 19,3 C 54 % 0,0 l/m 5,6 km/h (1 Bft) W-SW 247 9,8 C 19,9 C 10,1 km/h (2 Bft)
22.05.2012 13:15 18,8 C 54 % 0,0 l/m 6,4 km/h (2 Bft) W-SW 247 9,3 C 19,7 C 5,8 km/h (2 Bft)
22.05.2012 13:20 18,6 C 53 % 0,0 l/m 5,8 km/h (2 Bft) N-NW 337 8,8 C 19,6 C 4,5 km/h (1 Bft)
22.05.2012 13:25 19,0 C 53 % 0,0 l/m 6,1 km/h (2 Bft) NW 315 9,2 C 19,7 C 6,3 km/h (2 Bft)
22.05.2012 13:30 18,9 C 51 % 0,0 l/m 5,5 km/h (1 Bft) W 270 8,5 C 19,9 C 3,9 km/h (1 Bft)
22.05.2012 13:35 18,8 C 53 % 0,0 l/m 4,0 km/h (1 Bft) NW 315 9,0 C 20,2 C 1,9 km/h (1 Bft)
22.05.2012 13:40 18,9 C 53 % 0,0 l/m 3,2 km/h (1 Bft) W-NW 292 9,1 C 20,2 C 6,1 km/h (2 Bft)
22.05.2012 13:45 18,3 C 53 % 0,0 l/m 3,1 km/h (1 Bft) SO 135 8,6 C 19,9 C 0,0 km/h (0 Bft)
22.05.2012 13:50 18,6 C 53 % 0,0 l/m 3,7 km/h (1 Bft) N 360 8,8 C 19,9 C 5,8 km/h (2 Bft)
22.05.2012 13:55 19,0 C 55 % 0,0 l/m 3,9 km/h (1 Bft) S-SO 157 9,8 C 19,8 C 4,2 km/h (1 Bft)
22.05.2012 14:00 18,8 C 53 % 0,0 l/m 4,0 km/h (1 Bft) W-SW 247 9,0 C 20,2 C 6,3 km/h (2 Bft)
22.05.2012 14:05 19,1 C 53 % 0,0 l/m 4,2 km/h (1 Bft) S-SW 202 9,3 C 20,0 C 4,0 km/h (1 Bft)
22.05.2012 14:10 18,8 C 54 % 0,0 l/m 4,7 km/h (1 Bft) W-SW 247 9,3 C 20,0 C 10,5 km/h (2 Bft)
22.05.2012 14:15 18,9 C 54 % 0,0 l/m 4,7 km/h (1 Bft) S 180 9,4 C 19,9 C 6,0 km/h (2 Bft)
22.05.2012 14:20 18,6 C 55 % 0,0 l/m 5,6 km/h (1 Bft) S 180 9,4 C 19,7 C 6,3 km/h (2 Bft)
22.05.2012 14:25 18,7 C 56 % 0,0 l/m 6,1 km/h (2 Bft) SW 225 9,7 C 19,5 C 7,1 km/h (2 Bft)
22.05.2012 14:30 18,9 C 56 % 0,0 l/m 5,6 km/h (1 Bft) S-SW 202 9,9 C 19,6 C 10,8 km/h (2 Bft)
22.05.2012 14:35 18,4 C 53 % 0,0 l/m 5,3 km/h (1 Bft) S-SW 202 8,6 C 19,5 C 4,7 km/h (1 Bft)
22.05.2012 14:40 18,4 C 53 % 0,0 l/m 5,5 km/h (1 Bft) W 270 8,6 C 19,3 C 4,8 km/h (1 Bft)
22.05.2012 14:45 18,3 C 54 % 0,0 l/m 4,3 km/h (1 Bft) W-SW 247 8,8 C 19,3 C 4,7 km/h (1 Bft)
22.05.2012 14:50 17,9 C 55 % 0,0 l/m 3,4 km/h (1 Bft) O-NO 67 8,7 C 19,1 C 0,0 km/h (0 Bft)
22.05.2012 14:55 17,9 C 56 % 0,0 l/m 3,1 km/h (1 Bft) W-SW 247 9,0 C 19,1 C 5,3 km/h (1 Bft)
22.05.2012 15:00 17,8 C 56 % 0,0 l/m 2,7 km/h (1 Bft) NW 315 8,9 C 19,0 C 5,1 km/h (1 Bft)
22.05.2012 15:05 17,9 C 57 % 0,0 l/m 3,2 km/h (1 Bft) S 180 9,3 C 18,9 C 5,5 km/h (1 Bft)
22.05.2012 15:10 17,9 C 57 % 0,0 l/m 3,7 km/h (1 Bft) O 90 9,3 C 18,7 C 2,4 km/h (1 Bft)
22.05.2012 15:15 17,8 C 57 % 0,0 l/m 4,0 km/h (1 Bft) W-NW 292 9,2 C 18,6 C 6,3 km/h (2 Bft)
22.05.2012 15:20 18,1 C 57 % 0,0 l/m 2,9 km/h (1 Bft) W-NW 292 9,4 C 18,6 C 0,0 km/h (0 Bft)
22.05.2012 15:25 18,6 C 55 % 0,0 l/m 2,4 km/h (1 Bft) N-NW 337 9,4 C 18,9 C 2,1 km/h (1 Bft)
22.05.2012 15:30 18,9 C 54 % 0,0 l/m 2,1 km/h (1 Bft) N-NW 337 9,4 C 19,6 C 3,2 km/h (1 Bft)
22.05.2012 15:35 18,6 C 55 % 0,0 l/m 2,3 km/h (1 Bft) W-NW 292 9,4 C 20,0 C 3,1 km/h (1 Bft)
22.05.2012 15:40 18,4 C 56 % 0,0 l/m 2,9 km/h (1 Bft) S-SW 202 9,5 C 19,6 C 4,8 km/h (1 Bft)
22.05.2012 15:45 18,3 C 54 % 0,0 l/m 2,9 km/h (1 Bft) SW 225 8,8 C 19,4 C 4,0 km/h (1 Bft)
22.05.2012 15:50 17,9 C 55 % 0,0 l/m 2,9 km/h (1 Bft) S-SW 202 8,7 C 19,0 C 2,4 km/h (1 Bft)
22.05.2012 15:55 17,7 C 56 % 0,0 l/m 2,6 km/h (1 Bft) W-SW 247 8,8 C 18,8 C 2,4 km/h (1 Bft)
22.05.2012 16:00 17,9 C 57 % 0,0 l/m 1,3 km/h (1 Bft) O 90 9,3 C 18,8 C 2,4 km/h (1 Bft)
22.05.2012 16:05 18,0 C 56 % 0,0 l/m 2,1 km/h (1 Bft) S-SW 202 9,1 C 18,8 C 4,0 km/h (1 Bft)
22.05.2012 16:10 18,1 C 58 % 0,0 l/m 2,7 km/h (1 Bft) W-SW 247 9,7 C 18,6 C 6,8 km/h (2 Bft)
22.05.2012 16:15 17,9 C 57 % 0,0 l/m 2,6 km/h (1 Bft) SW 225 9,3 C 18,5 C 5,5 km/h (1 Bft)
22.05.2012 16:20 18,3 C 57 % 0,0 l/m 2,4 km/h (1 Bft) W-SW 247 9,6 C 18,7 C 2,4 km/h (1 Bft)
22.05.2012 16:25 18,3 C 57 % 0,0 l/m 2,9 km/h (1 Bft) W-SW 247 9,6 C 18,7 C 2,9 km/h (1 Bft)
22.05.2012 16:30 18,1 C 57 % 0,0 l/m 2,4 km/h (1 Bft) W-NW 292 9,4 C 18,9 C 2,9 km/h (1 Bft)
22.05.2012 16:35 18,1 C 57 % 0,0 l/m 2,4 km/h (1 Bft) W-SW 247 9,4 C 19,1 C 4,8 km/h (1 Bft)
22.05.2012 16:40 17,6 C 57 % 0,0 l/m 2,4 km/h (1 Bft) W 270 9,0 C 18,9 C 3,4 km/h (1 Bft)
22.05.2012 16:45 17,6 C 56 % 0,0 l/m 2,7 km/h (1 Bft) W-NW 292 8,7 C 18,7 C 3,5 km/h (1 Bft)
22.05.2012 16:50 17,3 C 57 % 0,0 l/m 2,3 km/h (1 Bft) S-SW 202 8,7 C 18,4 C 1,8 km/h (1 Bft)
22.05.2012 16:55 17,3 C 58 % 0,0 l/m 1,3 km/h (1 Bft) S-SW 202 9,0 C 18,1 C 1,9 km/h (1 Bft)
22.05.2012 17:00 16,2 C 65 % 0,0 l/m 0,5 km/h (0 Bft) NW 315 9,6 C 17,5 C 2,7 km/h (1 Bft)
22.05.2012 17:05 16,0 C 64 % 0,0 l/m 0,5 km/h (0 Bft) N-NO 22 9,2 C 17,1 C 0,0 km/h (0 Bft)
22.05.2012 17:10 15,9 C 66 % 0,0 l/m 0,3 km/h (0 Bft) N 360 9,6 C 16,5 C 0,0 km/h (0 Bft)
22.05.2012 17:15 15,7 C 67 % 0,0 l/m 0,2 km/h (0 Bft) NO 45 9,6 C 16,3 C 0,0 km/h (0 Bft)
22.05.2012 17:20 15,2 C 73 % 0,0 l/m 0,2 km/h (0 Bft) N-NO 22 10,4 C 15,9 C 0,0 km/h (0 Bft)
22.05.2012 17:25 14,9 C 76 % 0,0 l/m 0,3 km/h (0 Bft) N-NO 22 10,7 C 15,5 C 0,0 km/h (0 Bft)
22.05.2012 17:30 14,7 C 77 % 0,0 l/m 0,2 km/h (0 Bft) NO 45 10,7 C 15,3 C 0,0 km/h (0 Bft)
22.05.2012 17:35 14,9 C 78 % 0,0 l/m 0,0 km/h (0 Bft) NO 45 11,1 C 15,2 C 0,0 km/h (0 Bft)
22.05.2012 17:40 15,2 C 79 % 0,0 l/m 0,0 km/h (0 Bft) O-NO 67 11,6 C 15,2 C 1,6 km/h (1 Bft)
22.05.2012 17:45 15,5 C 79 % 0,0 l/m 0,2 km/h (0 Bft) N-NO 22 11,9 C 15,3 C 0,0 km/h (0 Bft)
22.05.2012 17:50 15,8 C 79 % 0,0 l/m 0,2 km/h (0 Bft) N-NO 22 12,2 C 15,6 C 0,0 km/h (0 Bft)
22.05.2012 17:55 15,6 C 79 % 0,0 l/m 0,2 km/h (0 Bft) NO 45 12,0 C 15,6 C 0,0 km/h (0 Bft)
22.05.2012 18:00 15,1 C 80 % 0,0 l/m 0,2 km/h (0 Bft) N-NO 22 11,7 C 15,3 C 0,0 km/h (0 Bft)
22.05.2012 18:05 14,9 C 82 % 0,0 l/m 0,0 km/h (0 Bft) N 360 11,9 C 15,2 C 0,0 km/h (0 Bft)
22.05.2012 18:10 14,6 C 83 % 0,0 l/m 0,0 km/h (0 Bft) N-NO 22 11,7 C 14,9 C 0,0 km/h (0 Bft)
22.05.2012 18:15 14,5 C 82 % 0,0 l/m 0,0 km/h (0 Bft) O 90 11,5 C 14,9 C 0,0 km/h (0 Bft)
22.05.2012 18:21 14,3 C 82 % 0,0 l/m 0,0 km/h (0 Bft) NO 45 11,3 C 14,7 C 0,0 km/h (0 Bft)
22.05.2012 18:25 14,3 C 82 % 0,0 l/m 0,0 km/h (0 Bft) NO 45 11,3 C 14,7 C 0,0 km/h (0 Bft)
22.05.2012 18:30 14,1 C 82 % 0,0 l/m 0,0 km/h (0 Bft) N-NO 22 11,1 C 14,6 C 0,0 km/h (0 Bft)
22.05.2012 18:35 14,0 C 82 % 0,0 l/m 0,0 km/h (0 Bft) N 360 11,0 C 14,5 C 0,0 km/h (0 Bft)
22.05.2012 18:40 13,8 C 84 % 0,0 l/m 0,0 km/h (0 Bft) N 360 11,1 C 14,1 C 0,0 km/h (0 Bft)
22.05.2012 18:45 13,7 C 84 % 0,0 l/m 0,0 km/h (0 Bft) NO 45 11,0 C 13,9 C 0,0 km/h (0 Bft)
22.05.2012 18:50 13,5 C 85 % 0,0 l/m 0,0 km/h (0 Bft) N 360 11,0 C 13,7 C 0,0 km/h (0 Bft)
22.05.2012 18:55 13,4 C 85 % 0,0 l/m 0,0 km/h (0 Bft) N 360 10,9 C 13,6 C 0,0 km/h (0 Bft)
22.05.2012 19:00 13,3 C 85 % 0,0 l/m 0,2 km/h (0 Bft) W-SW 247 10,8 C 13,5 C 0,0 km/h (0 Bft)
22.05.2012 19:05 13,3 C 85 % 0,0 l/m 0,2 km/h (0 Bft) N-NO 22 10,8 C 13,4 C 0,0 km/h (0 Bft)
22.05.2012 19:10 13,2 C 86 % 0,0 l/m 0,0 km/h (0 Bft) NO 45 10,9 C 13,3 C 0,0 km/h (0 Bft)
22.05.2012 19:15 13,2 C 86 % 0,0 l/m 0,0 km/h (0 Bft) N-NO 22 10,9 C 13,2 C 0,0 km/h (0 Bft)
22.05.2012 19:20 13,2 C 86 % 0,0 l/m 0,5 km/h (0 Bft) SO 135 10,9 C 13,0 C 1,6 km/h (1 Bft)
22.05.2012 19:25 13,2 C 86 % 0,0 l/m 0,6 km/h (0 Bft) O 90 10,9 C 13,0 C 0,0 km/h (0 Bft)
22.05.2012 19:30 13,3 C 86 % 0,0 l/m 0,3 km/h (0 Bft) N-NO 22 11,0 C 13,1 C 1,8 km/h (1 Bft)
22.05.2012 19:35 13,2 C 87 % 0,0 l/m 0,2 km/h (0 Bft) N 360 11,1 C 13,1 C 0,0 km/h (0 Bft)
22.05.2012 19:40 13,1 C 88 % 0,0 l/m 0,8 km/h (0 Bft) N 360 11,2 C 13,1 C 3,2 km/h (1 Bft)
22.05.2012 19:45 13,1 C 88 % 0,0 l/m 1,1 km/h (1 Bft) N-NO 22 11,2 C 13,1 C 0,0 km/h (0 Bft)
22.05.2012 19:50 13,2 C 87 % 0,0 l/m 1,1 km/h (1 Bft) NO 45 11,1 C 13,1 C 3,5 km/h (1 Bft)
22.05.2012 19:55 13,3 C 87 % 0,0 l/m 0,8 km/h (0 Bft) NO 45 11,2 C 13,2 C 0,0 km/h (0 Bft)
22.05.2012 20:00 13,3 C 86 % 0,0 l/m 0,6 km/h (0 Bft) N 360 11,0 C 13,3 C 0,0 km/h (0 Bft)
22.05.2012 20:05 13,2 C 87 % 0,0 l/m 0,3 km/h (0 Bft) N-NW 337 11,1 C 13,2 C 1,6 km/h (1 Bft)
22.05.2012 20:10 13,1 C 87 % 0,0 l/m 0,3 km/h (0 Bft) NO 45 11,0 C 13,1 C 0,0 km/h (0 Bft)
22.05.2012 20:15 13,2 C 87 % 0,0 l/m 0,5 km/h (0 Bft) NO 45 11,1 C 13,0 C 0,0 km/h (0 Bft)
22.05.2012 20:20 13,0 C 87 % 0,0 l/m 1,0 km/h (0 Bft) N-NW 337 10,9 C 13,0 C 3,2 km/h (1 Bft)
22.05.2012 20:25 13,0 C 88 % 0,0 l/m 1,9 km/h (1 Bft) W 270 11,1 C 13,0 C 2,3 km/h (1 Bft)
22.05.2012 20:30 12,9 C 88 % 0,0 l/m 2,3 km/h (1 Bft) W 270 11,0 C 12,9 C 0,0 km/h (0 Bft)
22.05.2012 20:35 12,8 C 88 % 0,0 l/m 1,3 km/h (1 Bft) O-SO 112 10,9 C 12,8 C 1,6 km/h (1 Bft)
22.05.2012 20:40 12,7 C 88 % 0,7 l/m 0,5 km/h (0 Bft) N-NO 22 10,8 C 12,6 C 0,0 km/h (0 Bft)
22.05.2012 20:45 12,6 C 88 % 0,0 l/m 0,3 km/h (0 Bft) O 90 10,7 C 12,5 C 0,0 km/h (0 Bft)
22.05.2012 20:50 12,5 C 87 % 0,0 l/m 0,3 km/h (0 Bft) O-SO 112 10,4 C 12,3 C 2,1 km/h (1 Bft)
22.05.2012 20:55 12,4 C 87 % 0,0 l/m 1,0 km/h (0 Bft) O-SO 112 10,3 C 12,3 C 3,4 km/h (1 Bft)
22.05.2012 21:00 12,3 C 87 % 0,0 l/m 1,1 km/h (1 Bft) O-SO 112 10,2 C 12,2 C 0,0 km/h (0 Bft)
22.05.2012 21:05 12,3 C 87 % 0,0 l/m 0,6 km/h (0 Bft) N-NW 337 10,2 C 12,2 C 0,0 km/h (0 Bft)
22.05.2012 21:10 12,2 C 88 % 0,0 l/m 0,8 km/h (0 Bft) S-SO 157 10,3 C 12,2 C 1,6 km/h (1 Bft)
22.05.2012 21:15 12,2 C 88 % 0,0 l/m 1,0 km/h (0 Bft) N 360 10,3 C 12,2 C 0,0 km/h (0 Bft)
22.05.2012 21:21 12,2 C 88 % 0,0 l/m 0,6 km/h (0 Bft) SO 135 10,3 C 12,1 C 0,0 km/h (0 Bft)
22.05.2012 21:25 12,2 C 88 % 0,0 l/m 0,6 km/h (0 Bft) SO 135 10,3 C 12,1 C 0,0 km/h (0 Bft)
22.05.2012 21:30 12,2 C 88 % 0,0 l/m 0,3 km/h (0 Bft) O-NO 67 10,3 C 12,1 C 1,6 km/h (1 Bft)
22.05.2012 21:35 12,3 C 88 % 0,0 l/m 1,1 km/h (1 Bft) NO 45 10,4 C 12,2 C 1,8 km/h (1 Bft)
22.05.2012 21:40 12,2 C 88 % 0,0 l/m 1,3 km/h (1 Bft) S-SO 157 10,3 C 12,3 C 0,0 km/h (0 Bft)
22.05.2012 21:45 12,3 C 88 % 0,0 l/m 0,8 km/h (0 Bft) NO 45 10,4 C 12,3 C 2,1 km/h (1 Bft)
22.05.2012 21:50 12,2 C 88 % 0,0 l/m 0,5 km/h (0 Bft) S 180 10,3 C 12,3 C 0,0 km/h (0 Bft)
22.05.2012 21:55 12,1 C 88 % 0,0 l/m 0,2 km/h (0 Bft) SO 135 10,2 C 12,2 C 0,0 km/h (0 Bft)
22.05.2012 22:00 12,1 C 88 % 0,0 l/m 0,3 km/h (0 Bft) W-SW 247 10,2 C 12,1 C 0,0 km/h (0 Bft)
22.05.2012 22:05 12,0 C 88 % 0,0 l/m 0,3 km/h (0 Bft) SO 135 10,1 C 12,1 C 0,0 km/h (0 Bft)
22.05.2012 22:10 11,9 C 88 % 0,0 l/m 0,0 km/h (0 Bft) N-NW 337 10,0 C 11,9 C 0,0 km/h (0 Bft)
22.05.2012 22:15 11,9 C 89 % 0,0 l/m 0,0 km/h (0 Bft) N-NO 22 10,1 C 11,8 C 0,0 km/h (0 Bft)
22.05.2012 22:20 11,8 C 89 % 0,7 l/m 0,0 km/h (0 Bft) O-SO 112 10,0 C 11,8 C 0,0 km/h (0 Bft)
22.05.2012 22:25 11,9 C 89 % 0,0 l/m 0,3 km/h (0 Bft) N 360 10,1 C 11,8 C 0,0 km/h (0 Bft)
22.05.2012 22:30 11,8 C 89 % 0,0 l/m 0,3 km/h (0 Bft) N 360 10,0 C 11,8 C 0,0 km/h (0 Bft)
22.05.2012 22:35 11,8 C 90 % 0,0 l/m 0,2 km/h (0 Bft) N 360 10,2 C 11,8 C 0,0 km/h (0 Bft)
22.05.2012 22:40 11,8 C 90 % 0,0 l/m 0,0 km/h (0 Bft) O-NO 67 10,2 C 11,7 C 0,0 km/h (0 Bft)
22.05.2012 22:45 11,8 C 90 % 0,0 l/m 0,0 km/h (0 Bft) O-SO 112 10,2 C 11,7 C 0,0 km/h (0 Bft)
22.05.2012 22:50 11,8 C 90 % 0,0 l/m 0,0 km/h (0 Bft) N 360 10,2 C 11,7 C 0,0 km/h (0 Bft)
22.05.2012 22:55 11,8 C 90 % 0,0 l/m 0,0 km/h (0 Bft) N 360 10,2 C 11,7 C 0,0 km/h (0 Bft)
22.05.2012 23:00 11,8 C 90 % 0,0 l/m 0,3 km/h (0 Bft) O-SO 112 10,2 C 11,7 C 2,1 km/h (1 Bft)
22.05.2012 23:05 11,8 C 91 % 0,0 l/m 0,5 km/h (0 Bft) O-SO 112 10,4 C 11,7 C 0,0 km/h (0 Bft)
22.05.2012 23:10 11,7 C 91 % 0,0 l/m 1,1 km/h (1 Bft) NO 45 10,3 C 11,7 C 0,0 km/h (0 Bft)
22.05.2012 23:15 11,7 C 91 % 0,0 l/m 1,8 km/h (1 Bft) O-SO 112 10,3 C 11,6 C 3,4 km/h (1 Bft)
22.05.2012 23:20 11,7 C 91 % 0,0 l/m 2,1 km/h (1 Bft) N 360 10,3 C 11,6 C 0,0 km/h (0 Bft)
22.05.2012 23:25 11,6 C 91 % 0,0 l/m 1,4 km/h (1 Bft) N 360 10,2 C 11,6 C 0,0 km/h (0 Bft)
22.05.2012 23:30 11,6 C 91 % 0,0 l/m 0,0 km/h (0 Bft) N-NW 337 10,2 C 11,6 C 0,0 km/h (0 Bft)
22.05.2012 23:35 11,6 C 91 % 0,7 l/m 0,0 km/h (0 Bft) N-NW 337 10,2 C 11,6 C 0,0 km/h (0 Bft)
22.05.2012 23:40 11,5 C 91 % 0,0 l/m 0,0 km/h (0 Bft) W 270 10,1 C 11,5 C 0,0 km/h (0 Bft)
22.05.2012 23:45 11,5 C 91 % 0,0 l/m 0,0 km/h (0 Bft) NW 315 10,1 C 11,5 C 0,0 km/h (0 Bft)
22.05.2012 23:50 11,5 C 92 % 0,0 l/m 0,0 km/h (0 Bft) N-NW 337 10,2 C 11,5 C 0,0 km/h (0 Bft)
22.05.2012 23:55 11,5 C 92 % 0,0 l/m 0,0 km/h (0 Bft) SO 135 10,2 C 11,5 C 0,0 km/h (0 Bft)
_ Min-Zeit 05:50 11:30 - 23:55 - - 05:50 06:00 23:55
Minimum _ 6,6 C 39 % - 0,0 km/h (0 Bft) - - 4,8 C 6,2 C 0,0 km/h (0 Bft)
_ Max-Zeit 11:35 23:55 23:35 01:05 - - 17:50 09:50 01:05
Maximum _ 22,2 C 92 % 0,7 l/m 6,6 km/h
SO (2 Bft)
- - 12,2 C 23,8 C 19,3 km/h
SO (3 Bft)
Durchschnitt _ 14,1 C 73 % #2,1 l/m 1,9 km/h (1 Bft) W-SW - 8,9 C 14,5 C 2,5 km/h (1 Bft)